Time;durP1;ratioP1;P1;durP2;ratioP2;P2;SDS_P1;SDS_P2;PMS_P1;PMS_P2;Temp;Humidity;BMP_temperature;BMP_pressure;BME280_temperature;BME280_humidity;BME280_pressure;Samples;Min_cycle;Max_cycle;Signal;HPM_P1;HPM_P2
2023/06/23 00:02:01;;;;;;;4.80;4.23;;;21.40;99.90;;;;;;10228673;28;20231;-70
2023/06/23 00:07:01;;;;;;;4.97;4.37;;;21.30;99.90;;;;;;10222556;28;20278;-70
2023/06/23 00:12:02;;;;;;;5.20;4.70;;;21.30;99.90;;;;;;10228808;28;20749;-69
2023/06/23 00:17:03;;;;;;;7.00;4.80;;;21.30;99.90;;;;;;10236230;28;20260;-70
2023/06/23 00:22:03;;;;;;;5.93;4.90;;;21.30;99.90;;;;;;10233334;28;20746;-70
2023/06/23 00:27:04;;;;;;;5.20;4.70;;;21.30;99.90;;;;;;10227879;28;20266;-69
2023/06/23 00:32:08;;;;;;;5.30;4.50;;;21.30;99.90;;;;;;10223153;28;20318;-70
2023/06/23 00:37:09;;;;;;;5.50;5.00;;;21.40;99.90;;;;;;10226990;28;20235;-70
2023/06/23 00:42:09;;;;;;;6.17;5.57;;;21.40;99.90;;;;;;10229307;28;20223;-71
2023/06/23 00:47:10;;;;;;;5.37;4.87;;;21.40;99.90;;;;;;10223925;28;20719;-70
2023/06/23 00:52:14;;;;;;;5.47;4.97;;;21.40;99.90;;;;;;10226899;28;20317;-70
2023/06/23 00:57:14;;;;;;;5.40;4.90;;;21.30;99.90;;;;;;10224266;28;20722;-69
2023/06/23 01:02:15;;;;;;;6.47;4.90;;;21.30;99.90;;;;;;10241012;28;20235;-74
2023/06/23 01:07:36;;;;;;;5.70;4.70;;;21.20;99.90;;;;;;10235810;28;20319;-74
2023/06/23 01:12:57;;;;;;;5.63;4.17;;;21.30;99.90;;;;;;10227726;28;20718;-74
2023/06/23 01:18:13;;;;;;;5.57;4.63;;;21.30;99.90;;;;;;10235325;28;20255;-74
2023/06/23 01:23:51;;;;;;;5.80;4.90;;;21.20;99.90;;;;;;10231527;28;20226;-74
2023/06/23 01:29:09;;;;;;;4.93;4.50;;;21.10;99.90;;;;;;10232344;28;20710;-74
2023/06/23 01:34:13;;;;;;;7.23;4.93;;;21.00;99.90;;;;;;10230081;28;20721;-74
2023/06/23 01:39:17;;;;;;;8.83;4.80;;;21.00;99.90;;;;;;10229482;28;20274;-75
2023/06/23 01:44:22;;;;;;;4.73;4.27;;;20.90;99.90;;;;;;10228278;28;20228;-74
2023/06/23 01:49:31;;;;;;;5.10;4.60;;;21.00;99.90;;;;;;10223410;28;20228;-75
2023/06/23 01:54:33;;;;;;;5.97;4.50;;;21.00;99.90;;;;;;10225040;28;20266;-74
2023/06/23 01:59:37;;;;;;;5.90;4.67;;;21.00;99.90;;;;;;10219791;28;20220;-75
2023/06/23 02:04:40;;;;;;;5.30;4.80;;;21.00;99.90;;;;;;10221511;28;20316;-74
2023/06/23 02:09:42;;;;;;;5.80;5.20;;;21.10;99.90;;;;;;10225332;28;20234;-74
2023/06/23 02:14:44;;;;;;;5.40;4.57;;;21.10;99.90;;;;;;10234471;28;20223;-75
2023/06/23 02:19:48;;;;;;;5.87;5.27;;;21.10;99.90;;;;;;10226787;28;20691;-74
2023/06/23 02:24:49;;;;;;;6.13;5.23;;;21.10;99.90;;;;;;10242993;28;20232;-74
2023/06/23 02:29:51;;;;;;;6.23;5.40;;;21.10;99.90;;;;;;10219861;28;20224;-74
2023/06/23 02:34:52;;;;;;;5.67;4.97;;;21.00;99.90;;;;;;10233600;28;20957;-75
2023/06/23 02:40:16;;;;;;;7.17;4.50;;;21.00;99.90;;;;;;10220126;28;20228;-73
2023/06/23 02:45:19;;;;;;;7.17;5.00;;;21.00;99.90;;;;;;10218565;28;20287;-75
2023/06/23 02:50:26;;;;;;;5.77;4.53;;;21.00;99.90;;;;;;10230395;28;20227;-74
2023/06/23 02:55:28;;;;;;;4.77;4.27;;;20.90;99.90;;;;;;10227035;28;20204;-74
2023/06/23 03:00:30;;;;;;;5.50;4.40;;;20.90;99.90;;;;;;10228011;28;20282;-74
2023/06/23 03:05:31;;;;;;;5.73;4.83;;;20.80;99.90;;;;;;10221817;28;20306;-74
2023/06/23 03:10:32;;;;;;;6.90;5.00;;;20.80;99.90;;;;;;10224015;28;20236;-75
2023/06/23 03:15:33;;;;;;;5.13;4.73;;;20.70;99.90;;;;;;10230153;28;20733;-74
2023/06/23 03:20:41;;;;;;;5.27;4.77;;;20.70;99.90;;;;;;10226837;28;20227;-75
2023/06/23 03:25:46;;;;;;;5.60;4.87;;;20.70;99.90;;;;;;10223489;28;20585;-74
2023/06/23 03:31:02;;;;;;;5.83;4.93;;;20.80;99.90;;;;;;10224202;28;20231;-74
2023/06/23 03:36:22;;;;;;;5.47;4.93;;;20.70;99.90;;;;;;10231495;28;20329;-74
2023/06/23 03:41:24;;;;;;;5.63;5.13;;;20.60;99.90;;;;;;10234482;28;20644;-74
2023/06/23 03:46:46;;;;;;;6.33;5.23;;;20.60;99.90;;;;;;10227448;28;20701;-75
2023/06/23 03:51:50;;;;;;;5.50;5.00;;;20.60;99.90;;;;;;10220742;28;20247;-75
2023/06/23 03:56:53;;;;;;;5.90;5.30;;;20.60;99.90;;;;;;10224349;28;20838;-74
2023/06/23 04:02:05;;;;;;;6.83;5.10;;;20.60;99.90;;;;;;10215912;28;20274;-74
2023/06/23 04:07:09;;;;;;;6.30;5.57;;;20.70;99.90;;;;;;10219047;28;20235;-75
2023/06/23 04:12:12;;;;;;;6.10;5.50;;;20.70;99.90;;;;;;10222573;28;20604;-74
2023/06/23 04:17:15;;;;;;;6.03;5.10;;;20.70;99.90;;;;;;10225111;28;20280;-75
2023/06/23 04:22:18;;;;;;;5.70;4.90;;;20.60;99.90;;;;;;10228969;28;20272;-75
2023/06/23 04:27:21;;;;;;;6.30;5.67;;;20.70;99.90;;;;;;10220977;28;20227;-75
2023/06/23 04:32:23;;;;;;;6.57;5.93;;;20.80;99.90;;;;;;10226452;28;20710;-73
2023/06/23 04:37:36;;;;;;;6.57;5.57;;;20.80;99.90;;;;;;10220958;28;20250;-75
2023/06/23 04:42:53;;;;;;;8.50;5.90;;;20.90;99.90;;;;;;10235226;28;20223;-74
2023/06/23 04:48:06;;;;;;;7.17;4.80;;;20.90;99.90;;;;;;10222113;28;20227;-75
2023/06/23 04:53:15;;;;;;;7.27;4.47;;;20.70;99.90;;;;;;10227804;28;20302;-74
2023/06/23 04:58:18;;;;;;;5.63;4.30;;;20.50;99.90;;;;;;10231187;28;20322;-74
2023/06/23 05:03:20;;;;;;;4.27;3.97;;;20.30;99.90;;;;;;10246412;28;20227;-74
2023/06/23 05:08:25;;;;;;;4.47;3.83;;;20.30;99.90;;;;;;10238111;28;20741;-73
2023/06/23 05:13:28;;;;;;;5.23;4.23;;;20.40;99.90;;;;;;10228278;28;20216;-74
2023/06/23 05:18:29;;;;;;;4.60;4.20;;;20.30;99.90;;;;;;10237314;28;20234;-74
2023/06/23 05:23:36;;;;;;;4.33;3.87;;;20.20;99.90;;;;;;10225987;28;20250;-74
2023/06/23 05:28:39;;;;;;;3.67;3.37;;;20.20;99.90;;;;;;10222428;28;20236;-75
2023/06/23 05:33:42;;;;;;;5.13;4.07;;;20.30;99.90;;;;;;10227078;28;20620;-74
2023/06/23 05:38:45;;;;;;;5.33;3.80;;;20.60;99.90;;;;;;10229515;28;20250;-74
2023/06/23 05:43:46;;;;;;;4.77;3.90;;;20.80;99.90;;;;;;10228886;28;20687;-75
2023/06/23 05:48:53;;;;;;;5.73;3.80;;;20.80;99.90;;;;;;10232657;28;20405;-75
2023/06/23 05:53:57;;;;;;;6.93;4.50;;;20.90;99.90;;;;;;10219303;28;20243;-75
2023/06/23 05:59:02;;;;;;;6.63;4.17;;;20.80;99.90;;;;;;10226878;28;20306;-74
2023/06/23 06:04:14;;;;;;;6.50;4.60;;;20.70;99.90;;;;;;10231689;28;20265;-75
2023/06/23 06:09:17;;;;;;;6.73;4.30;;;20.50;99.90;;;;;;10226974;28;20227;-74
2023/06/23 06:14:20;;;;;;;5.83;4.63;;;20.40;99.90;;;;;;10223544;28;20216;-74
2023/06/23 06:19:23;;;;;;;6.67;4.90;;;20.40;99.90;;;;;;10230611;28;20216;-76
2023/06/23 06:24:25;;;;;;;6.10;4.93;;;20.60;99.90;;;;;;10222181;28;20228;-74
2023/06/23 06:29:27;;;;;;;6.83;4.90;;;20.70;99.90;;;;;;10221908;28;20330;-75
2023/06/23 06:34:30;;;;;;;7.40;5.30;;;21.00;99.90;;;;;;10222662;28;20226;-75
2023/06/23 06:39:31;;;;;;;7.53;4.60;;;21.70;99.90;;;;;;10221298;28;20224;-74
2023/06/23 06:44:32;;;;;;;5.53;4.53;;;22.70;99.90;;;;;;10222898;28;20234;-75
2023/06/23 06:49:35;;;;;;;6.20;4.37;;;23.40;99.90;;;;;;10219125;28;20692;-75
2023/06/23 06:54:36;;;;;;;5.90;4.40;;;24.10;99.50;;;;;;10230887;28;20389;-75
2023/06/23 06:59:36;;;;;;;7.20;4.50;;;24.20;97.90;;;;;;10219081;28;20319;-74
2023/06/23 07:04:39;;;;;;;7.17;4.80;;;23.90;97.70;;;;;;10227850;28;20383;-75
2023/06/23 07:09:40;;;;;;;5.23;4.63;;;23.80;98.00;;;;;;10224059;28;20709;-75
2023/06/23 07:14:40;;;;;;;6.60;4.20;;;24.10;97.40;;;;;;10227507;28;20227;-74
2023/06/23 07:19:41;;;;;;;7.20;4.93;;;23.60;98.00;;;;;;10224153;28;20222;-74
2023/06/23 07:24:41;;;;;;;7.63;4.50;;;24.00;97.50;;;;;;10244368;28;20250;-74
2023/06/23 07:29:43;;;;;;;8.87;4.60;;;24.60;95.60;;;;;;10224065;28;20232;-75
2023/06/23 07:34:43;;;;;;;5.90;4.67;;;24.50;94.30;;;;;;10223947;28;20258;-75
2023/06/23 07:39:44;;;;;;;7.53;4.83;;;24.50;94.70;;;;;;10218184;28;20257;-75
2023/06/23 07:44:45;;;;;;;6.77;4.70;;;26.20;92.60;;;;;;10223989;28;20252;-75
2023/06/23 07:49:49;;;;;;;6.03;4.77;;;28.00;85.80;;;;;;10223837;28;20227;-74
2023/06/23 07:54:49;;;;;;;5.60;4.53;;;29.40;77.90;;;;;;10223340;28;20784;-74
2023/06/23 07:59:50;;;;;;;8.57;5.30;;;30.10;70.80;;;;;;10224438;28;20281;-74
2023/06/23 08:04:50;;;;;;;8.97;5.13;;;31.10;67.40;;;;;;10223672;28;20635;-74
2023/06/23 08:09:51;;;;;;;5.70;5.17;;;31.60;63.40;;;;;;10218354;28;20236;-73
2023/06/23 08:14:51;;;;;;;9.23;5.30;;;30.70;62.90;;;;;;10235888;28;20647;-74
2023/06/23 08:19:58;;;;;;;9.53;5.13;;;29.60;64.90;;;;;;10223272;28;20220;-74
2023/06/23 08:24:59;;;;;;;8.27;5.40;;;30.20;63.50;;;;;;10223553;28;20726;-74
2023/06/23 08:30:00;;;;;;;6.17;5.57;;;29.60;63.90;;;;;;10229409;28;20230;-74
2023/06/23 08:35:02;;;;;;;5.87;5.27;;;28.00;68.80;;;;;;10223434;28;20341;-74
2023/06/23 08:40:03;;;;;;;8.07;5.40;;;26.90;72.20;;;;;;10237512;28;20241;-74
2023/06/23 08:45:06;;;;;;;7.20;5.70;;;26.20;73.90;;;;;;10223237;28;20654;-73
2023/06/23 08:50:08;;;;;;;5.50;4.93;;;25.90;76.00;;;;;;10234813;28;20247;-74
2023/06/23 08:55:10;;;;;;;9.67;5.53;;;27.80;70.90;;;;;;10228847;28;20234;-74
2023/06/23 09:00:12;;;;;;;7.73;5.50;;;31.20;61.30;;;;;;10235154;28;20191;-74
2023/06/23 09:05:15;;;;;;;7.80;5.07;;;32.80;56.10;;;;;;10233739;28;20191;-74
2023/06/23 09:10:17;;;;;;;7.77;4.50;;;33.40;54.40;;;;;;10224694;28;20869;-75
2023/06/23 09:15:18;;;;;;;8.97;4.50;;;34.60;51.90;;;;;;10229534;28;20210;-75
2023/06/23 09:20:19;;;;;;;12.53;4.80;;;35.40;48.80;;;;;;10225820;28;20608;-74
2023/06/23 09:25:39;;;;;;;5.40;4.50;;;35.50;46.70;;;;;;10230258;28;20180;-73
2023/06/23 09:30:40;;;;;;;6.93;4.80;;;34.80;47.20;;;;;;10246391;28;20561;-74
2023/06/23 09:35:49;;;;;;;8.87;4.60;;;33.50;49.60;;;;;;10228154;28;20302;-74
2023/06/23 09:41:08;;;;;;;9.40;4.70;;;33.00;50.30;;;;;;10220924;28;20277;-73
2023/06/23 09:46:10;;;;;;;10.07;4.80;;;34.20;47.90;;;;;;10222469;28;20230;-73
2023/06/23 09:51:12;;;;;;;14.37;4.90;;;35.40;46.60;;;;;;10227980;28;20229;-74
2023/06/23 09:56:15;;;;;;;10.23;4.40;;;34.40;46.70;;;;;;10235754;28;20754;-74
2023/06/23 10:01:17;;;;;;;5.80;4.47;;;34.00;47.60;;;;;;10228672;28;20737;-74
2023/06/23 10:06:32;;;;;;;10.07;5.17;;;34.70;46.00;;;;;;10223902;28;20719;-76
2023/06/23 10:11:37;;;;;;;6.57;4.37;;;35.70;44.60;;;;;;10224354;28;20322;-74
2023/06/23 10:16:41;;;;;;;4.80;4.40;;;34.80;44.90;;;;;;10231942;28;20242;-74
2023/06/23 10:21:43;;;;;;;17.40;4.70;;;34.10;46.90;;;;;;10228241;28;20256;-75
2023/06/23 10:26:50;;;;;;;8.17;4.33;;;35.50;45.60;;;;;;10226432;28;20219;-73
2023/06/23 10:31:56;;;;;;;4.10;3.70;;;36.70;42.50;;;;;;10218837;28;20252;-74
2023/06/23 10:37:01;;;;;;;5.33;4.30;;;37.00;42.00;;;;;;10219863;28;20238;-75
2023/06/23 10:42:03;;;;;;;10.43;4.67;;;34.30;44.80;;;;;;10226837;28;20222;-73
2023/06/23 10:47:04;;;;;;;5.87;4.73;;;31.10;50.50;;;;;;10234337;28;20255;-73
2023/06/23 10:52:07;;;;;;;4.90;4.43;;;29.80;54.20;;;;;;10225438;28;20254;-73
2023/06/23 10:57:12;;;;;;;6.57;4.60;;;30.80;51.20;;;;;;10233811;28;20230;-75
2023/06/23 11:02:12;;;;;;;6.97;4.73;;;30.00;52.60;;;;;;10230521;28;20227;-74
2023/06/23 11:07:13;;;;;;;5.30;4.70;;;29.40;54.50;;;;;;10220576;28;20312;-74
2023/06/23 11:12:36;;;;;;;5.77;5.00;;;28.10;56.70;;;;;;10224288;28;20946;-74
2023/06/23 11:17:43;;;;;;;6.57;4.43;;;27.20;58.50;;;;;;10221280;28;20587;-74
2023/06/23 11:23:13;;;;;;;6.70;4.60;;;27.50;59.10;;;;;;10230665;28;20214;-74
2023/06/23 11:28:37;;;;;;;4.70;4.30;;;27.90;58.10;;;;;;10219394;28;20268;-73
2023/06/23 11:33:39;;;;;;;5.33;4.83;;;26.90;58.90;;;;;;10229770;28;20220;-74
2023/06/23 11:38:42;;;;;;;5.20;4.57;;;25.90;61.80;;;;;;10228011;28;20283;-74
2023/06/23 11:43:45;;;;;;;5.50;4.67;;;25.60;63.50;;;;;;10232145;28;20247;-75
2023/06/23 11:48:46;;;;;;;7.10;4.93;;;25.70;63.20;;;;;;10236991;28;20211;-74
2023/06/23 11:53:50;;;;;;;6.43;4.50;;;26.00;63.20;;;;;;10233636;28;20227;-75
2023/06/23 11:58:52;;;;;;;5.37;4.37;;;26.40;62.50;;;;;;10232110;28;20217;-75
2023/06/23 12:03:53;;;;;;;6.03;4.33;;;26.60;62.40;;;;;;10238246;28;20700;-74
2023/06/23 12:08:57;;;;;;;6.07;4.33;;;26.70;62.10;;;;;;10232957;28;20229;-74
2023/06/23 12:13:58;;;;;;;5.43;4.27;;;26.50;61.20;;;;;;10223641;28;20233;-74
2023/06/23 12:18:59;;;;;;;5.27;4.30;;;26.20;61.80;;;;;;10240586;28;20221;-74
2023/06/23 12:24:00;;;;;;;5.73;4.13;;;26.20;62.00;;;;;;10236412;28;20766;-73
2023/06/23 12:29:08;;;;;;;4.83;4.33;;;26.80;60.80;;;;;;10229605;28;20234;-74
2023/06/23 12:34:13;;;;;;;4.23;3.83;;;27.20;59.80;;;;;;10224097;28;20216;-74
2023/06/23 12:39:15;;;;;;;4.10;3.80;;;27.00;59.70;;;;;;10227214;28;20303;-75
2023/06/23 12:44:20;;;;;;;6.27;3.87;;;27.00;60.00;;;;;;10231922;28;20223;-75
2023/06/23 12:49:31;;;;;;;4.10;3.80;;;27.60;59.10;;;;;;10233931;28;20280;-74
2023/06/23 12:54:32;;;;;;;3.90;3.60;;;28.30;56.50;;;;;;10226362;28;20242;-74
2023/06/23 12:59:32;;;;;;;4.03;3.40;;;28.40;54.50;;;;;;10230596;28;20216;-74
2023/06/23 13:04:33;;;;;;;4.97;3.80;;;28.20;55.20;;;;;;10226497;28;20697;-73
2023/06/23 13:09:34;;;;;;;5.77;3.67;;;27.70;56.30;;;;;;10223849;28;20253;-74
2023/06/23 13:14:35;;;;;;;5.50;3.87;;;27.30;57.10;;;;;;10225294;28;20222;-74
2023/06/23 13:19:36;;;;;;;4.60;3.80;;;27.10;57.60;;;;;;10229886;28;20233;-74
2023/06/23 13:24:40;;;;;;;6.90;3.83;;;27.30;58.20;;;;;;10228892;28;20594;-75
2023/06/23 13:29:44;;;;;;;4.27;3.67;;;27.40;57.90;;;;;;10226919;28;20380;-74
2023/06/23 13:34:45;;;;;;;5.00;3.63;;;27.50;57.90;;;;;;10233674;28;20237;-75
2023/06/23 13:39:45;;;;;;;6.27;3.97;;;27.10;58.50;;;;;;10229569;28;20227;-75
2023/06/23 13:44:46;;;;;;;6.77;3.60;;;27.30;58.10;;;;;;10235097;28;20309;-75
2023/06/23 13:49:47;;;;;;;3.50;3.20;;;27.60;57.80;;;;;;10228293;28;20233;-75
2023/06/23 13:54:48;;;;;;;5.83;3.60;;;27.40;57.00;;;;;;10227169;28;20485;-74
2023/06/23 13:59:49;;;;;;;3.87;3.50;;;27.00;57.20;;;;;;10220225;28;20222;-74
2023/06/23 14:04:49;;;;;;;4.10;3.70;;;26.90;58.00;;;;;;10227000;28;20732;-74
2023/06/23 14:09:50;;;;;;;3.67;3.37;;;27.00;58.30;;;;;;10219085;28;20230;-76
2023/06/23 14:14:50;;;;;;;4.83;3.57;;;27.20;57.20;;;;;;10226143;28;20713;-72
2023/06/23 14:19:53;;;;;;;3.93;3.50;;;27.10;56.30;;;;;;10226919;28;20265;-74
2023/06/23 14:24:53;;;;;;;3.30;3.00;;;27.20;57.30;;;;;;10236962;28;20217;-74
2023/06/23 14:29:54;;;;;;;3.30;3.00;;;27.20;56.70;;;;;;10218517;28;20221;-74
2023/06/23 14:34:54;;;;;;;3.57;3.27;;;27.50;56.20;;;;;;10218355;28;20314;-73
2023/06/23 14:39:55;;;;;;;3.37;3.07;;;27.50;55.90;;;;;;10234715;28;20218;-75
2023/06/23 14:44:56;;;;;;;4.83;3.10;;;27.40;56.20;;;;;;10218510;28;20901;-75
2023/06/23 14:49:57;;;;;;;3.47;3.17;;;27.50;56.20;;;;;;10218592;28;20227;-74
2023/06/23 14:54:58;;;;;;;2.93;2.70;;;27.70;56.00;;;;;;10225396;28;20251;-73
2023/06/23 14:59:59;;;;;;;4.67;2.80;;;28.30;55.50;;;;;;10225556;28;20254;-75
2023/06/23 15:04:59;;;;;;;3.30;2.50;;;28.50;51.80;;;;;;10225435;28;20714;-74
2023/06/23 15:10:00;;;;;;;4.37;2.77;;;28.40;51.60;;;;;;10218532;28;20227;-75
2023/06/23 15:15:01;;;;;;;3.30;2.47;;;28.00;53.30;;;;;;10218039;28;20216;-74
2023/06/23 15:20:04;;;;;;;3.00;2.77;;;27.70;54.30;;;;;;10224414;28;20230;-74
2023/06/23 15:25:05;;;;;;;2.93;2.70;;;27.50;54.90;;;;;;10226469;28;20219;-74
2023/06/23 15:30:06;;;;;;;4.23;2.60;;;27.40;54.40;;;;;;10218849;28;20210;-74
2023/06/23 15:35:08;;;;;;;3.10;2.80;;;27.30;53.90;;;;;;10226952;28;20183;-73
2023/06/23 15:40:13;;;;;;;2.90;2.60;;;27.20;54.20;;;;;;10224392;28;20244;-74
2023/06/23 15:45:13;;;;;;;4.00;2.90;;;27.10;54.80;;;;;;10226327;28;20662;-73
2023/06/23 15:50:14;;;;;;;8.53;2.77;;;27.00;55.40;;;;;;10228743;28;20222;-75
2023/06/23 15:55:15;;;;;;;3.97;2.83;;;26.90;55.40;;;;;;10229175;28;20206;-75
2023/06/23 16:00:17;;;;;;;3.80;2.67;;;26.90;55.80;;;;;;10218911;28;20225;-74
2023/06/23 16:05:18;;;;;;;3.30;3.10;;;26.90;56.10;;;;;;10216798;28;20252;-75
2023/06/23 16:10:19;;;;;;;2.90;2.60;;;26.80;55.90;;;;;;10224132;28;20561;-75
2023/06/23 16:15:20;;;;;;;3.30;3.00;;;26.60;56.40;;;;;;10220373;28;20244;-75
2023/06/23 16:20:20;;;;;;;3.47;2.90;;;26.50;56.40;;;;;;10218351;28;20199;-74
2023/06/23 16:25:21;;;;;;;3.60;2.90;;;26.70;56.60;;;;;;10223542;28;20285;-74
2023/06/23 16:30:22;;;;;;;3.37;3.07;;;26.70;56.80;;;;;;10220791;28;20270;-73
2023/06/23 16:35:22;;;;;;;3.53;3.13;;;26.60;57.70;;;;;;10241891;28;20200;-73
2023/06/23 16:40:23;;;;;;;4.57;3.10;;;26.40;57.70;;;;;;10226731;28;20201;-73
2023/06/23 16:45:23;;;;;;;3.20;2.90;;;26.40;58.40;;;;;;10226306;28;20215;-75
2023/06/23 16:50:24;;;;;;;3.90;2.93;;;26.30;58.50;;;;;;10242894;28;20242;-74
2023/06/23 16:55:25;;;;;;;4.03;2.80;;;26.40;58.60;;;;;;10224385;28;20706;-75
2023/06/23 17:00:28;;;;;;;4.00;3.30;;;26.40;58.50;;;;;;10225828;28;20333;-74
2023/06/23 17:05:29;;;;;;;3.70;3.20;;;26.70;58.70;;;;;;10224549;28;20537;-74
2023/06/23 17:10:29;;;;;;;3.27;2.80;;;27.00;57.90;;;;;;10225962;28;20230;-75
2023/06/23 17:15:30;;;;;;;2.90;2.63;;;27.10;57.30;;;;;;10223089;28;20207;-73
2023/06/23 17:20:31;;;;;;;3.77;2.90;;;26.90;56.30;;;;;;10225639;28;20313;-74
2023/06/23 17:25:32;;;;;;;2.80;2.60;;;26.60;57.20;;;;;;10228232;28;20224;-75
2023/06/23 17:30:34;;;;;;;3.10;2.80;;;26.40;57.80;;;;;;10223658;28;20241;-74
2023/06/23 17:35:35;;;;;;;3.87;3.57;;;26.20;58.80;;;;;;10225563;28;20234;-75
2023/06/23 17:40:35;;;;;;;3.83;3.00;;;26.00;59.40;;;;;;10232440;28;20645;-75
2023/06/23 17:45:36;;;;;;;3.33;3.03;;;25.90;59.90;;;;;;10231338;28;20694;-75
2023/06/23 17:50:37;;;;;;;3.63;3.20;;;25.80;60.50;;;;;;10239194;28;20240;-74
2023/06/23 17:55:37;;;;;;;3.37;3.03;;;25.70;60.40;;;;;;10229892;28;20721;-75
2023/06/23 18:00:38;;;;;;;3.73;2.83;;;25.60;61.10;;;;;;10227316;28;20634;-74
2023/06/23 18:05:38;;;;;;;3.57;2.83;;;25.50;61.20;;;;;;10221119;28;20672;-75
2023/06/23 18:10:39;;;;;;;3.00;2.70;;;25.40;60.90;;;;;;10224761;28;20577;-75
2023/06/23 18:15:39;;;;;;;5.97;3.07;;;25.30;60.30;;;;;;10218723;28;20223;-74
2023/06/23 18:20:40;;;;;;;3.00;2.80;;;25.20;60.50;;;;;;10235229;28;20228;-70
2023/06/23 18:25:40;;;;;;;3.43;2.80;;;25.10;60.90;;;;;;10224906;28;20227;-71
2023/06/23 18:30:41;;;;;;;3.77;2.70;;;25.00;61.10;;;;;;10220586;28;20311;-70
2023/06/23 18:35:45;;;;;;;6.30;3.00;;;24.90;61.20;;;;;;10226102;28;20227;-71
2023/06/23 18:40:46;;;;;;;3.73;2.90;;;24.80;60.70;;;;;;10218130;28;20285;-72
2023/06/23 18:45:46;;;;;;;4.27;3.10;;;24.70;61.40;;;;;;10233648;28;20289;-70
2023/06/23 18:50:47;;;;;;;7.27;3.30;;;24.60;61.80;;;;;;10222891;28;20230;-70
2023/06/23 18:55:47;;;;;;;4.37;3.10;;;24.50;62.20;;;;;;10215692;28;20282;-71
2023/06/23 19:00:48;;;;;;;3.23;2.90;;;24.30;62.70;;;;;;10223982;28;20652;-70
2023/06/23 19:05:52;;;;;;;4.23;3.00;;;24.20;63.10;;;;;;10224224;28;20266;-70
2023/06/23 19:10:52;;;;;;;3.30;3.00;;;24.10;63.50;;;;;;10224025;28;20241;-71
2023/06/23 19:15:53;;;;;;;2.97;2.77;;;24.00;64.20;;;;;;10217215;28;20230;-71
2023/06/23 19:20:54;;;;;;;3.80;2.80;;;23.80;65.10;;;;;;10227730;28;20222;-70
2023/06/23 19:25:54;;;;;;;5.03;3.17;;;23.60;65.90;;;;;;10216454;28;20274;-70
2023/06/23 19:30:55;;;;;;;4.43;3.30;;;23.50;66.50;;;;;;10223480;28;20247;-71
2023/06/23 19:35:55;;;;;;;5.20;3.67;;;23.30;67.00;;;;;;10221131;28;20214;-72
2023/06/23 19:40:57;;;;;;;4.93;3.07;;;23.20;68.10;;;;;;10232466;28;20227;-71
2023/06/23 19:45:58;;;;;;;3.53;2.90;;;23.10;68.40;;;;;;10229787;28;20211;-71
2023/06/23 19:50:59;;;;;;;3.57;3.20;;;22.90;68.80;;;;;;10231377;28;20901;-70
2023/06/23 19:55:59;;;;;;;3.63;3.17;;;22.80;69.20;;;;;;10216755;28;20239;-70
2023/06/23 20:01:00;;;;;;;6.20;3.70;;;22.60;70.00;;;;;;10215975;28;20769;-71
2023/06/23 20:06:01;;;;;;;4.87;3.50;;;22.50;70.80;;;;;;10232560;28;20215;-72
2023/06/23 20:11:01;;;;;;;3.60;3.30;;;22.30;72.20;;;;;;10236857;28;20245;-69
2023/06/23 20:16:02;;;;;;;3.70;3.40;;;22.10;73.30;;;;;;10236443;28;20226;-70
2023/06/23 20:21:02;;;;;;;9.10;3.53;;;21.90;74.30;;;;;;10236570;28;20377;-71
2023/06/23 20:26:04;;;;;;;3.70;3.40;;;21.80;75.40;;;;;;10230482;28;20269;-69
2023/06/23 20:31:05;;;;;;;4.87;3.10;;;21.60;76.10;;;;;;10223659;28;20703;-69
2023/06/23 20:36:05;;;;;;;4.50;3.53;;;21.50;77.10;;;;;;10228786;28;20223;-71
2023/06/23 20:41:06;;;;;;;4.10;3.80;;;21.40;78.00;;;;;;10236236;28;20306;-71
2023/06/23 20:46:06;;;;;;;7.83;4.10;;;21.20;78.40;;;;;;10252086;28;20235;-71
2023/06/23 20:51:07;;;;;;;3.90;3.50;;;21.10;79.10;;;;;;10234268;28;20245;-70
2023/06/23 20:56:08;;;;;;;7.10;3.67;;;21.10;79.60;;;;;;10222795;28;20232;-71
2023/06/23 21:01:08;;;;;;;3.63;3.33;;;21.00;80.40;;;;;;10227200;28;20223;-69
2023/06/23 21:06:09;;;;;;;6.83;3.97;;;20.90;80.30;;;;;;10229620;28;20305;-71
2023/06/23 21:11:09;;;;;;;4.60;3.80;;;20.90;80.80;;;;;;10227034;28;20238;-70
2023/06/23 21:16:10;;;;;;;6.00;4.20;;;20.80;81.10;;;;;;10222091;28;20645;-71
2023/06/23 21:21:11;;;;;;;5.33;3.93;;;20.80;81.80;;;;;;10232978;28;20879;-70
2023/06/23 21:26:11;;;;;;;4.30;3.90;;;20.70;82.60;;;;;;10221216;28;20240;-71
2023/06/23 21:31:12;;;;;;;5.90;4.63;;;20.60;82.60;;;;;;10230102;28;20718;-70
2023/06/23 21:36:13;;;;;;;5.03;4.30;;;20.50;83.30;;;;;;10222325;28;20223;-71
2023/06/23 21:41:13;;;;;;;5.43;4.37;;;20.40;84.00;;;;;;10238120;28;20707;-71
2023/06/23 21:46:14;;;;;;;5.23;4.20;;;20.40;84.60;;;;;;10225466;28;20222;-71
2023/06/23 21:51:15;;;;;;;4.23;3.83;;;20.40;84.60;;;;;;10230157;28;20254;-70
2023/06/23 21:56:15;;;;;;;4.77;4.30;;;20.30;85.50;;;;;;10239456;28;20233;-71
2023/06/23 22:01:17;;;;;;;4.60;4.20;;;20.20;85.80;;;;;;10231562;28;20273;-70
2023/06/23 22:06:17;;;;;;;5.53;4.40;;;20.20;86.40;;;;;;10222449;28;20223;-71
2023/06/23 22:11:18;;;;;;;5.00;4.03;;;20.10;87.10;;;;;;10233444;28;20227;-70
2023/06/23 22:16:18;;;;;;;5.43;4.80;;;20.10;88.10;;;;;;10223780;28;20258;-70
2023/06/23 22:21:19;;;;;;;5.13;4.63;;;20.00;88.60;;;;;;10227219;28;20719;-70
2023/06/23 22:26:20;;;;;;;6.13;5.30;;;19.90;88.60;;;;;;10222096;28;20234;-71
2023/06/23 22:31:23;;;;;;;5.07;4.40;;;19.80;88.90;;;;;;10222504;28;20724;-71
2023/06/23 22:36:27;;;;;;;4.90;4.30;;;19.80;88.00;;;;;;10223469;28;20225;-71
2023/06/23 22:41:28;;;;;;;4.97;4.27;;;19.60;88.30;;;;;;10222957;28;20224;-70
2023/06/23 22:46:29;;;;;;;6.90;4.23;;;19.60;89.10;;;;;;10228509;28;20219;-71
2023/06/23 22:51:31;;;;;;;5.00;4.50;;;19.50;89.70;;;;;;10220166;28;20335;-70
2023/06/23 22:56:31;;;;;;;4.27;3.87;;;19.40;90.20;;;;;;10229404;28;20575;-70
2023/06/23 23:01:32;;;;;;;6.00;4.23;;;19.30;90.50;;;;;;10227855;28;20216;-71
2023/06/23 23:06:34;;;;;;;6.77;4.60;;;19.30;90.80;;;;;;10221446;28;20234;-70
2023/06/23 23:11:34;;;;;;;5.23;4.30;;;19.30;91.00;;;;;;10220379;28;20228;-70
2023/06/23 23:16:35;;;;;;;5.23;4.33;;;19.20;91.20;;;;;;10224405;28;20224;-70
2023/06/23 23:21:37;;;;;;;7.30;4.77;;;19.20;91.40;;;;;;10215487;28;20226;-69
2023/06/23 23:26:38;;;;;;;5.33;4.50;;;19.10;91.70;;;;;;10226050;28;20238;-69
2023/06/23 23:31:40;;;;;;;7.90;5.03;;;19.10;91.70;;;;;;10223094;28;20237;-70
2023/06/23 23:36:43;;;;;;;7.87;4.90;;;19.00;91.90;;;;;;10218701;28;20226;-71
2023/06/23 23:41:43;;;;;;;4.90;4.40;;;18.90;92.30;;;;;;10227858;28;20230;-70
2023/06/23 23:46:44;;;;;;;4.53;4.10;;;18.90;92.60;;;;;;10214150;28;20706;-70
2023/06/23 23:51:44;;;;;;;4.93;4.43;;;18.90;92.70;;;;;;10218996;28;20288;-70
2023/06/23 23:56:45;;;;;;;4.87;3.97;;;18.90;92.60;;;;;;10221260;28;20248;-69
